createdAt,value
2022-08-11T00:00:44.583Z,2.05
2022-08-11T00:04:02.486Z,2.28
2022-08-11T00:07:06.808Z,1.85
2022-08-11T00:10:15.644Z,1.92
2022-08-11T00:13:19.188Z,1.98
2022-08-11T00:16:24.898Z,1.73
2022-08-11T00:20:14.945Z,1.85
2022-08-11T00:22:53.400Z,1.67
2022-08-11T00:25:57.114Z,1.73
2022-08-11T00:29:10.066Z,1.90
2022-08-11T00:32:15.295Z,1.70
2022-08-11T00:35:53.887Z,1.95
2022-08-11T00:38:42.194Z,1.90
2022-08-11T00:41:56.734Z,1.70
2022-08-11T00:45:19.376Z,1.80
2022-08-11T00:48:33.290Z,2.05
2022-08-11T00:52:02.212Z,1.77
2022-08-11T00:55:55.704Z,1.55
2022-08-11T00:59:35.487Z,1.90
2022-08-11T01:02:41.915Z,1.70
2022-08-11T01:06:13.943Z,1.50
2022-08-11T01:09:25.529Z,1.60
2022-08-11T01:12:42.947Z,1.60
2022-08-11T01:15:55.845Z,2.00
2022-08-11T01:19:05.891Z,1.65
2022-08-11T01:22:23.688Z,1.83
2022-08-11T01:25:57.290Z,1.42
2022-08-11T01:29:22.912Z,1.52
2022-08-11T01:32:50.060Z,1.77
2022-08-11T01:36:48.298Z,1.73
2022-08-11T01:40:32.657Z,1.62
2022-08-11T01:44:18.800Z,1.70
2022-08-11T01:47:53.506Z,1.83
2022-08-11T01:51:45.981Z,1.75
2022-08-11T01:55:09.159Z,1.48
2022-08-11T01:58:36.276Z,1.83
2022-08-11T02:01:51.738Z,1.55
2022-08-11T02:05:03.111Z,1.85
2022-08-11T02:08:33.542Z,1.40
2022-08-11T02:11:38.533Z,1.48
2022-08-11T02:15:04.611Z,1.83
2022-08-11T02:18:46.740Z,1.75
2022-08-11T02:22:21.858Z,1.73
2022-08-11T02:25:42.717Z,1.85
2022-08-11T02:32:30.694Z,1.80
2022-08-11T02:35:52.361Z,1.62
2022-08-11T02:39:09.777Z,1.35
2022-08-11T02:42:32.488Z,1.73
2022-08-11T02:45:57.017Z,1.55
2022-08-11T02:49:33.507Z,1.55
2022-08-11T02:52:59.629Z,1.60
2022-08-11T02:56:14.116Z,1.60
2022-08-11T02:59:49.858Z,1.45
2022-08-11T03:03:06.460Z,1.48
2022-08-11T03:06:19.585Z,1.65
2022-08-11T03:09:46.523Z,1.50
2022-08-11T03:13:29.691Z,1.45
2022-08-11T03:16:46.466Z,1.55
2022-08-11T03:20:15.295Z,1.50
2022-08-11T03:23:29.988Z,1.60
2022-08-11T03:27:03.370Z,1.62
2022-08-11T03:30:28.950Z,1.55
2022-08-11T03:34:06.745Z,1.48
2022-08-11T03:37:46.447Z,1.50
2022-08-11T03:42:02.591Z,1.80
2022-08-11T03:44:50.537Z,1.48
2022-08-11T03:48:13.909Z,1.62
2022-08-11T03:51:26.143Z,1.40
2022-08-11T03:54:59.105Z,1.52
2022-08-11T03:58:46.456Z,1.62
2022-08-11T04:02:34.607Z,1.55
2022-08-11T04:06:02.370Z,1.60
2022-08-11T04:09:35.612Z,1.62
2022-08-11T04:12:55.516Z,1.52
2022-08-11T04:16:12.352Z,1.97
2022-08-11T04:19:47.597Z,1.70
2022-08-11T04:24:36.797Z,1.35
2022-08-11T04:27:07.453Z,1.80
2022-08-11T04:31:02.598Z,1.70
2022-08-11T04:34:27.296Z,1.50
2022-08-11T04:37:50.748Z,2.03
2022-08-11T04:41:16.367Z,2.28
2022-08-11T04:44:24.526Z,1.52
2022-08-11T04:48:22.817Z,1.67
2022-08-11T04:51:49.881Z,1.50
2022-08-11T04:55:41.855Z,2.08
2022-08-11T04:59:02.803Z,1.70
2022-08-11T05:02:42.108Z,1.90
2022-08-11T05:06:13.872Z,1.98
2022-08-11T05:09:26.953Z,1.87
2022-08-11T05:12:42.542Z,2.15
2022-08-11T05:16:31.754Z,2.08
2022-08-11T05:19:52.587Z,2.10
2022-08-11T05:23:16.268Z,1.90
2022-08-11T05:26:47.473Z,1.62
2022-08-11T05:30:20.692Z,1.70
2022-08-11T05:33:53.952Z,2.08
2022-08-11T05:37:26.283Z,1.90
2022-08-11T05:40:50.930Z,2.78
2022-08-11T05:44:20.962Z,2.15
2022-08-11T05:47:44.426Z,2.30
2022-08-11T05:51:16.631Z,1.98
2022-08-11T05:54:38.568Z,2.12
2022-08-11T05:57:50.925Z,2.25
2022-08-11T06:00:54.871Z,2.33
2022-08-11T06:04:15.726Z,1.83
2022-08-11T06:10:33.218Z,4.47
2022-08-11T06:13:37.668Z,2.55
2022-08-11T06:16:42.609Z,2.30
2022-08-11T06:19:48.868Z,1.92
2022-08-11T06:23:04.419Z,2.22
2022-08-11T06:26:11.548Z,1.98
2022-08-11T06:29:18.455Z,2.72
2022-08-11T06:32:26.071Z,2.40
2022-08-11T06:35:53.197Z,2.70
2022-08-11T06:39:08.881Z,2.30
2022-08-11T06:42:24.600Z,2.80
2022-08-11T06:45:49.719Z,2.00
2022-08-11T06:48:54.393Z,1.70
2022-08-11T06:52:01.813Z,2.20
2022-08-11T06:58:55.120Z,2.28
2022-08-11T07:02:15.487Z,2.05
2022-08-11T07:06:01.988Z,2.22
2022-08-11T07:09:51.961Z,2.30
2022-08-11T07:13:44.950Z,1.98
2022-08-11T07:16:43.469Z,2.20
2022-08-11T07:20:09.931Z,2.00
2022-08-11T07:23:32.203Z,2.17
2022-08-11T07:26:53.248Z,1.92
2022-08-11T07:29:57.949Z,2.03
2022-08-11T07:33:03.059Z,1.98
2022-08-11T07:36:12.632Z,2.10
2022-08-11T07:39:21.336Z,1.60
2022-08-11T07:42:28.963Z,1.83
2022-08-11T07:45:50.556Z,1.33
2022-08-11T07:49:12.450Z,2.25
2022-08-11T07:52:28.647Z,1.90
2022-08-11T07:55:48.955Z,1.65
2022-08-11T07:59:10.860Z,2.33
2022-08-11T08:02:34.323Z,2.00
2022-08-11T08:05:56.406Z,1.77
2022-08-11T08:09:17.846Z,2.42
2022-08-11T08:12:42.139Z,1.62
2022-08-11T08:16:03.663Z,1.50
2022-08-11T08:19:06.593Z,2.03
2022-08-11T08:22:38.367Z,1.87
2022-08-11T08:25:34.350Z,2.00
2022-08-11T08:28:36.671Z,2.03
2022-08-11T08:31:40.026Z,1.65
2022-08-11T08:34:43.611Z,1.90
2022-08-11T08:37:47.822Z,1.67
2022-08-11T08:40:56.264Z,1.65
2022-08-11T08:44:27.803Z,1.85
2022-08-11T08:47:41.100Z,1.60
2022-08-11T08:51:21.998Z,1.45
2022-08-11T08:54:38.595Z,1.70
2022-08-11T08:57:43.863Z,1.60
2022-08-11T09:00:50.455Z,2.10
2022-08-11T09:04:04.766Z,1.50
2022-08-11T09:07:15.341Z,1.70
2022-08-11T09:10:20.215Z,1.70
2022-08-11T09:13:22.513Z,1.70
2022-08-11T09:16:27.765Z,1.67
2022-08-11T09:19:33.099Z,1.80
2022-08-11T09:24:02.160Z,1.40
2022-08-11T09:26:44.066Z,1.40
2022-08-11T09:29:49.255Z,1.50
2022-08-11T09:33:08.694Z,1.30
2022-08-11T09:36:42.160Z,1.03
2022-08-11T09:40:05.852Z,1.30
2022-08-11T09:43:32.882Z,1.17
2022-08-11T09:46:40.917Z,1.27
2022-08-11T09:49:50.192Z,1.60
2022-08-11T09:53:36.844Z,1.40
2022-08-11T09:56:44.590Z,1.30
2022-08-11T10:00:12.708Z,1.60
2022-08-11T10:03:17.508Z,1.10
2022-08-11T10:06:38.544Z,1.35
2022-08-11T10:10:01.883Z,1.60
2022-08-11T10:14:03.792Z,1.55
2022-08-11T10:16:35.518Z,1.40
2022-08-11T10:19:39.445Z,1.40
2022-08-11T10:23:01.680Z,1.60
2022-08-11T10:26:23.531Z,1.67
2022-08-11T10:29:50.249Z,1.52
2022-08-11T10:33:12.667Z,1.98
2022-08-11T10:36:48.241Z,1.10
2022-08-11T10:39:52.175Z,1.25
2022-08-11T10:43:03.144Z,1.00
2022-08-11T10:46:30.391Z,1.40
2022-08-11T10:49:33.483Z,1.48
2022-08-11T10:52:56.120Z,1.25
2022-08-11T10:56:18.423Z,1.27
2022-08-11T10:59:23.250Z,1.20
2022-08-11T11:02:27.452Z,1.10
2022-08-11T11:05:31.458Z,1.15
2022-08-11T11:08:57.659Z,1.30
2022-08-11T11:12:30.321Z,1.33
2022-08-11T11:15:54.620Z,1.58
2022-08-11T11:19:01.280Z,1.60
2022-08-11T11:22:24.563Z,1.37
2022-08-11T11:26:06.482Z,1.98
2022-08-11T11:29:47.031Z,1.27
2022-08-11T11:33:25.655Z,1.37
2022-08-11T11:36:34.095Z,1.30
2022-08-11T11:39:37.217Z,1.00
2022-08-11T11:42:41.680Z,1.33
2022-08-11T11:45:44.391Z,1.45
2022-08-11T11:48:47.786Z,1.17
2022-08-11T11:51:54.786Z,1.00
2022-08-11T11:54:58.567Z,1.30
2022-08-11T11:58:22.112Z,1.23
2022-08-11T12:01:25.671Z,1.20
2022-08-11T12:04:29.101Z,1.00
2022-08-11T12:07:56.730Z,1.00
2022-08-11T12:11:28.864Z,1.50
2022-08-11T12:14:31.618Z,1.30
2022-08-11T12:17:36.342Z,1.20
2022-08-11T12:20:38.980Z,1.87
2022-08-11T12:24:04.424Z,0.93
2022-08-11T12:27:25.054Z,1.05
2022-08-11T12:30:28.803Z,1.27
2022-08-11T12:33:31.131Z,0.88
2022-08-11T12:36:37.270Z,1.12
2022-08-11T12:40:16.974Z,0.98
2022-08-11T12:43:56.309Z,1.37
2022-08-11T12:47:02.136Z,1.10
2022-08-11T12:50:23.833Z,0.95
2022-08-11T12:53:29.808Z,1.45
2022-08-11T12:57:03.527Z,0.90
2022-08-11T13:00:26.027Z,1.08
2022-08-11T13:03:52.381Z,1.10
2022-08-11T13:06:59.121Z,0.90
2022-08-11T13:10:05.638Z,0.90
2022-08-11T13:13:55.835Z,0.82
2022-08-11T13:16:57.646Z,1.10
2022-08-11T13:20:00.607Z,1.12
2022-08-11T13:23:03.995Z,0.93
2022-08-11T13:26:08.830Z,0.90
2022-08-11T13:29:11.890Z,1.00
2022-08-11T13:32:15.979Z,0.98
2022-08-11T13:35:19.677Z,1.00
2022-08-11T13:38:24.564Z,1.00
2022-08-11T13:41:41.053Z,0.90
2022-08-11T13:44:44.146Z,1.00
2022-08-11T13:47:46.801Z,1.30
2022-08-11T13:51:07.350Z,1.02
2022-08-11T13:54:15.789Z,1.00
2022-08-11T13:58:07.242Z,1.00
2022-08-11T14:00:52.546Z,1.42
2022-08-11T14:04:30.734Z,1.08
2022-08-11T14:07:22.938Z,1.00
2022-08-11T14:10:29.078Z,1.10
2022-08-11T14:13:45.242Z,0.75
2022-08-11T14:16:54.019Z,1.10
2022-08-11T14:19:57.416Z,0.90
2022-08-11T14:23:00.204Z,1.00
2022-08-11T14:26:21.829Z,0.90
2022-08-11T14:29:27.564Z,0.90
2022-08-11T14:32:29.946Z,0.82
2022-08-11T14:35:32.786Z,1.30
2022-08-11T14:38:36.727Z,1.05
2022-08-11T14:42:11.399Z,0.85
2022-08-11T14:45:57.446Z,1.05
2022-08-11T14:48:59.970Z,1.15
2022-08-11T14:52:06.568Z,1.20
2022-08-11T14:55:28.677Z,0.70
2022-08-11T14:58:33.801Z,0.90
2022-08-11T15:01:55.629Z,1.30
2022-08-11T15:05:00.487Z,0.98
2022-08-11T15:08:03.402Z,1.00
2022-08-11T15:11:25.558Z,1.00
2022-08-11T15:14:46.633Z,1.10
2022-08-11T15:17:51.719Z,1.12
2022-08-11T15:21:12.874Z,0.90
2022-08-11T15:24:21.032Z,1.12
2022-08-11T15:27:43.208Z,1.10
2022-08-11T15:31:06.111Z,0.60
2022-08-11T15:34:31.584Z,0.90
2022-08-11T15:37:35.602Z,1.12
2022-08-11T15:40:59.121Z,0.73
2022-08-11T15:44:44.681Z,0.93
2022-08-11T15:48:05.077Z,0.77
2022-08-11T15:51:16.608Z,1.10
2022-08-11T15:54:23.450Z,0.85
2022-08-11T15:57:45.565Z,0.90
2022-08-11T16:01:09.425Z,0.95
2022-08-11T16:04:17.781Z,0.98
2022-08-11T16:07:26.989Z,0.90
2022-08-11T16:10:30.450Z,1.00
2022-08-11T16:13:42.322Z,0.98
2022-08-11T16:16:45.829Z,0.80
2022-08-11T16:19:51.626Z,0.95
2022-08-11T16:23:02.143Z,1.10
2022-08-11T16:27:07.852Z,0.90
2022-08-11T16:29:31.892Z,1.00
2022-08-11T16:32:38.453Z,0.90
2022-08-11T16:36:00.265Z,1.05
2022-08-11T16:39:03.273Z,1.10
2022-08-11T16:43:02.409Z,1.00
2022-08-11T16:46:07.483Z,1.08
2022-08-11T16:49:18.913Z,0.77
2022-08-11T16:52:23.407Z,1.10
2022-08-11T16:55:51.930Z,1.20
2022-08-11T16:59:14.723Z,1.15
2022-08-11T17:02:38.167Z,0.90
2022-08-11T17:06:06.100Z,1.10
2022-08-11T17:09:30.015Z,1.10
2022-08-11T17:12:53.954Z,0.80
2022-08-11T17:16:06.663Z,1.10
2022-08-11T17:19:14.154Z,1.20
2022-08-11T17:22:37.740Z,1.50
2022-08-11T17:25:58.770Z,1.48
2022-08-11T17:29:05.949Z,1.70
2022-08-11T17:32:33.446Z,1.40
2022-08-11T17:35:56.197Z,1.45
2022-08-11T17:38:58.392Z,1.42
2022-08-11T17:42:20.533Z,1.23
2022-08-11T17:45:56.170Z,1.50
2022-08-11T17:48:59.866Z,1.20
2022-08-11T17:52:21.525Z,1.30
2022-08-11T17:55:51.520Z,1.55
2022-08-11T17:59:15.687Z,1.15
2022-08-11T18:02:47.715Z,0.93
2022-08-11T18:05:51.503Z,1.40
2022-08-11T18:09:13.447Z,1.00
2022-08-11T18:12:34.353Z,1.33
2022-08-11T18:15:59.726Z,1.33
2022-08-11T18:19:21.075Z,1.23
2022-08-11T18:22:44.977Z,1.25
2022-08-11T18:26:08.030Z,1.60
2022-08-11T18:29:30.216Z,1.77
2022-08-11T18:33:08.048Z,1.10
2022-08-11T18:36:40.380Z,1.50
2022-08-11T18:40:06.056Z,1.40
2022-08-11T18:43:30.300Z,1.35
2022-08-11T18:46:54.734Z,1.33
2022-08-11T18:50:21.082Z,1.25
2022-08-11T18:54:00.871Z,1.15
2022-08-11T18:57:26.318Z,1.30
2022-08-11T19:00:48.871Z,1.30
2022-08-11T19:04:17.355Z,1.33
2022-08-11T19:07:41.524Z,1.50
2022-08-11T19:11:04.357Z,1.23
2022-08-11T19:14:27.657Z,1.58
2022-08-11T19:17:52.170Z,1.27
2022-08-11T19:21:14.437Z,1.50
2022-08-11T19:24:36.726Z,1.27
2022-08-11T19:27:58.982Z,1.25
2022-08-11T19:31:20.307Z,1.10
2022-08-11T19:34:43.655Z,1.30
2022-08-11T19:38:05.975Z,1.15
2022-08-11T19:41:51.718Z,1.23
2022-08-11T19:45:09.758Z,1.20
2022-08-11T19:48:32.398Z,1.50
2022-08-11T19:51:56.067Z,1.35
2022-08-11T19:55:17.471Z,1.33
2022-08-11T19:58:38.777Z,1.30
2022-08-11T20:02:05.347Z,1.20
2022-08-11T20:05:35.355Z,1.40
2022-08-11T20:09:00.330Z,1.12
2022-08-11T20:12:23.160Z,1.62
2022-08-11T20:15:46.790Z,1.20
2022-08-11T20:19:09.830Z,1.30
2022-08-11T20:22:32.263Z,1.45
2022-08-11T20:26:03.353Z,1.27
2022-08-11T20:29:27.400Z,1.05
2022-08-11T20:32:48.721Z,1.52
2022-08-11T20:36:10.437Z,1.35
2022-08-11T20:39:33.826Z,1.52
2022-08-11T20:42:55.690Z,1.50
2022-08-11T20:46:18.145Z,1.23
2022-08-11T20:49:50.450Z,1.40
2022-08-11T20:53:16.457Z,1.00
2022-08-11T20:56:39.269Z,1.73
2022-08-11T21:00:02.729Z,1.20
2022-08-11T21:03:35.723Z,1.42
2022-08-11T21:06:59.815Z,1.12
2022-08-11T21:10:24.094Z,1.12
2022-08-11T21:13:52.975Z,1.37
2022-08-11T21:17:27.604Z,1.58
2022-08-11T21:20:51.498Z,1.33
2022-08-11T21:24:15.821Z,1.17
2022-08-11T21:27:39.248Z,1.08
2022-08-11T21:31:01.206Z,1.20
2022-08-11T21:34:23.212Z,0.90
2022-08-11T21:37:46.494Z,1.10
2022-08-11T21:41:12.791Z,1.10
2022-08-11T21:44:35.047Z,0.90
2022-08-11T21:48:01.084Z,1.12
2022-08-11T21:51:22.508Z,1.10
2022-08-11T21:54:44.927Z,1.23
2022-08-11T21:58:06.862Z,1.40
2022-08-11T22:01:28.808Z,1.00
2022-08-11T22:04:55.683Z,0.93
2022-08-11T22:08:16.518Z,1.25
2022-08-11T22:11:38.014Z,1.05
2022-08-11T22:14:59.894Z,1.00
2022-08-11T22:18:21.304Z,0.90
2022-08-11T22:22:01.244Z,1.00
2022-08-11T22:25:26.150Z,0.90
2022-08-11T22:28:59.236Z,0.93
2022-08-11T22:32:20.556Z,0.82
2022-08-11T22:35:42.874Z,1.00
2022-08-11T22:39:05.515Z,0.75
2022-08-11T22:42:32.958Z,1.10
2022-08-11T22:45:54.706Z,0.80
2022-08-11T22:49:16.938Z,0.90
2022-08-11T22:52:40.326Z,1.10
2022-08-11T22:56:01.455Z,0.82
2022-08-11T22:59:25.134Z,0.90
2022-08-11T23:02:48.013Z,1.20
2022-08-11T23:06:09.248Z,1.15
2022-08-11T23:09:30.519Z,1.00
2022-08-11T23:12:52.252Z,1.02
2022-08-11T23:16:14.139Z,0.93
2022-08-11T23:20:07.155Z,1.10
2022-08-11T23:23:16.484Z,1.17
2022-08-11T23:26:39.408Z,1.20
2022-08-11T23:30:00.711Z,1.00
2022-08-11T23:33:23.147Z,0.93
2022-08-11T23:36:47.919Z,1.02
2022-08-11T23:40:09.402Z,0.95
2022-08-11T23:43:41.225Z,0.90
2022-08-11T23:47:03.027Z,1.02
2022-08-11T23:50:24.210Z,1.05
2022-08-11T23:53:45.701Z,0.88
2022-08-11T23:57:07.138Z,1.10
